sensor_id;sensor_type;location;lat;lon;timestamp;pressure;altitude;pressure_sealevel;temperature;humidity
16525;BME280;8375;33.594;-117.718;2023-11-22T00:00:06;100880.16;;;25.67;22.34
16525;BME280;8375;33.594;-117.718;2023-11-22T00:02:35;100883.41;;;25.55;23.36
16525;BME280;8375;33.594;-117.718;2023-11-22T00:05:05;100879.28;;;25.46;23.97
16525;BME280;8375;33.594;-117.718;2023-11-22T00:07:35;100882.53;;;25.41;24.34
16525;BME280;8375;33.594;-117.718;2023-11-22T00:10:05;100882.09;;;25.31;24.87
16525;BME280;8375;33.594;-117.718;2023-11-22T00:12:35;100887.16;;;25.19;26.19
16525;BME280;8375;33.594;-117.718;2023-11-22T01:41:30;100935.47;;;21.34;34.69
16525;BME280;8375;33.594;-117.718;2023-11-22T01:43:59;100933.53;;;21.28;34.33
16525;BME280;8375;33.594;-117.718;2023-11-22T01:46:29;100932.88;;;21.17;35.16
16525;BME280;8375;33.594;-117.718;2023-11-22T01:49:00;100932.88;;;21.17;35.85
16525;BME280;8375;33.594;-117.718;2023-11-22T01:51:29;100946.41;;;21.14;36.82
16525;BME280;8375;33.594;-117.718;2023-11-22T01:53:58;100945.78;;;21.04;36.67
16525;BME280;8375;33.594;-117.718;2023-11-22T01:56:30;100945.81;;;20.87;36.89
16525;BME280;8375;33.594;-117.718;2023-11-22T01:58:59;100952.59;;;20.81;37.66
16525;BME280;8375;33.594;-117.718;2023-11-22T02:01:28;100954.72;;;20.70;37.27
16525;BME280;8375;33.594;-117.718;2023-11-22T02:03:57;100953.72;;;20.62;37.91
16525;BME280;8375;33.594;-117.718;2023-11-22T02:06:26;100950.75;;;20.57;37.81
16525;BME280;8375;33.594;-117.718;2023-11-22T02:08:55;100951.28;;;20.44;38.08
16525;BME280;8375;33.594;-117.718;2023-11-22T02:11:24;100947.47;;;20.38;38.38
16525;BME280;8375;33.594;-117.718;2023-11-22T02:13:55;100945.81;;;20.29;39.10
16525;BME280;8375;33.594;-117.718;2023-11-22T02:16:24;100952.91;;;20.20;38.83
16525;BME280;8375;33.594;-117.718;2023-11-22T02:18:54;100947.28;;;20.07;38.95
16525;BME280;8375;33.594;-117.718;2023-11-22T02:21:22;100943.00;;;20.06;38.72
16525;BME280;8375;33.594;-117.718;2023-11-22T02:23:53;100941.16;;;19.90;38.56
16525;BME280;8375;33.594;-117.718;2023-11-22T02:26:21;100941.59;;;19.77;39.33
16525;BME280;8375;33.594;-117.718;2023-11-22T02:28:51;100941.72;;;19.67;39.33
16525;BME280;8375;33.594;-117.718;2023-11-22T02:31:20;100940.56;;;19.61;39.55
16525;BME280;8375;33.594;-117.718;2023-11-22T02:33:49;100944.50;;;19.57;39.67
16525;BME280;8375;33.594;-117.718;2023-11-22T02:36:18;100943.94;;;19.45;38.90
16525;BME280;8375;33.594;-117.718;2023-11-22T02:38:46;100935.22;;;19.37;39.59
16525;BME280;8375;33.594;-117.718;2023-11-22T02:41:17;100938.63;;;19.29;38.80
16525;BME280;8375;33.594;-117.718;2023-11-22T02:43:45;100938.78;;;19.27;39.16
16525;BME280;8375;33.594;-117.718;2023-11-22T02:46:14;100939.91;;;19.25;39.88
16525;BME280;8375;33.594;-117.718;2023-11-22T02:48:42;100929.84;;;19.12;38.72
16525;BME280;8375;33.594;-117.718;2023-11-22T02:51:11;100928.31;;;19.09;39.97
16525;BME280;8375;33.594;-117.718;2023-11-22T02:53:40;100916.03;;;18.91;40.49
16525;BME280;8375;33.594;-117.718;2023-11-22T02:56:12;100927.97;;;18.77;39.70
16525;BME280;8375;33.594;-117.718;2023-11-22T02:58:43;100932.25;;;18.79;38.62
16525;BME280;8375;33.594;-117.718;2023-11-22T03:01:12;100921.84;;;18.77;38.45
16525;BME280;8375;33.594;-117.718;2023-11-22T03:03:41;100923.31;;;18.71;37.43
16525;BME280;8375;33.594;-117.718;2023-11-22T03:06:09;100918.97;;;18.62;39.01
16525;BME280;8375;33.594;-117.718;2023-11-22T03:08:38;100926.34;;;18.58;38.57
16525;BME280;8375;33.594;-117.718;2023-11-22T03:11:05;100921.00;;;18.50;38.68
16525;BME280;8375;33.594;-117.718;2023-11-22T03:13:34;100930.31;;;18.44;37.09
16525;BME280;8375;33.594;-117.718;2023-11-22T03:16:05;100927.78;;;18.35;37.08
16525;BME280;8375;33.594;-117.718;2023-11-22T03:18:35;100928.41;;;18.28;38.65
16525;BME280;8375;33.594;-117.718;2023-11-22T03:21:05;100932.00;;;18.27;38.58
16525;BME280;8375;33.594;-117.718;2023-11-22T03:23:34;100926.81;;;18.17;38.03
16525;BME280;8375;33.594;-117.718;2023-11-22T03:26:02;100922.31;;;18.10;38.18
16525;BME280;8375;33.594;-117.718;2023-11-22T03:28:31;100920.97;;;18.06;38.10
16525;BME280;8375;33.594;-117.718;2023-11-22T03:30:59;100924.16;;;17.99;38.93
16525;BME280;8375;33.594;-117.718;2023-11-22T03:33:31;100926.69;;;17.91;38.54
16525;BME280;8375;33.594;-117.718;2023-11-22T03:35:59;100929.25;;;17.83;38.19
16525;BME280;8375;33.594;-117.718;2023-11-22T03:38:28;100929.38;;;17.81;38.29
16525;BME280;8375;33.594;-117.718;2023-11-22T03:49:15;100920.84;;;17.51;37.52
16525;BME280;8375;33.594;-117.718;2023-11-22T03:51:43;100920.44;;;17.46;38.21
16525;BME280;8375;33.594;-117.718;2023-11-22T03:54:12;100927.81;;;17.42;38.91
16525;BME280;8375;33.594;-117.718;2023-11-22T03:56:41;100927.03;;;17.32;39.92
16525;BME280;8375;33.594;-117.718;2023-11-22T03:59:10;100922.63;;;17.23;39.85
16525;BME280;8375;33.594;-117.718;2023-11-22T04:01:39;100918.25;;;17.13;40.33
16525;BME280;8375;33.594;-117.718;2023-11-22T04:04:07;100921.28;;;17.09;39.66
16525;BME280;8375;33.594;-117.718;2023-11-22T04:06:38;100925.34;;;17.03;39.64
16525;BME280;8375;33.594;-117.718;2023-11-22T04:09:07;100925.19;;;16.95;39.62
16525;BME280;8375;33.594;-117.718;2023-11-22T04:11:38;100919.53;;;16.90;38.17
16525;BME280;8375;33.594;-117.718;2023-11-22T04:14:07;100921.34;;;16.79;38.68
16525;BME280;8375;33.594;-117.718;2023-11-22T04:16:35;100921.88;;;16.83;39.91
16525;BME280;8375;33.594;-117.718;2023-11-22T04:19:04;100916.81;;;16.71;39.83
16525;BME280;8375;33.594;-117.718;2023-11-22T04:21:33;100926.31;;;16.72;39.38
16525;BME280;8375;33.594;-117.718;2023-11-22T04:24:03;100915.88;;;16.63;39.14
16525;BME280;8375;33.594;-117.718;2023-11-22T04:26:32;100921.66;;;16.56;39.56
16525;BME280;8375;33.594;-117.718;2023-11-22T04:29:01;100923.03;;;16.51;39.83
16525;BME280;8375;33.594;-117.718;2023-11-22T04:31:31;100922.78;;;16.44;40.12
16525;BME280;8375;33.594;-117.718;2023-11-22T04:33:59;100928.16;;;16.33;39.86
16525;BME280;8375;33.594;-117.718;2023-11-22T04:36:28;100923.47;;;16.26;39.31
16525;BME280;8375;33.594;-117.718;2023-11-22T04:38:57;100926.66;;;16.20;39.57
16525;BME280;8375;33.594;-117.718;2023-11-22T04:41:31;100929.53;;;16.17;40.71
16525;BME280;8375;33.594;-117.718;2023-11-22T04:44:01;100932.56;;;16.12;41.13
16525;BME280;8375;33.594;-117.718;2023-11-22T04:46:30;100933.94;;;16.07;39.95
16525;BME280;8375;33.594;-117.718;2023-11-22T04:48:58;100933.78;;;15.98;39.37
16525;BME280;8375;33.594;-117.718;2023-11-22T04:51:27;100935.16;;;15.93;39.08
16525;BME280;8375;33.594;-117.718;2023-11-22T04:53:56;100942.56;;;15.88;39.55
16525;BME280;8375;33.594;-117.718;2023-11-22T04:56:25;100941.16;;;15.83;40.08
16525;BME280;8375;33.594;-117.718;2023-11-22T04:58:55;100937.69;;;15.83;41.35
16525;BME280;8375;33.594;-117.718;2023-11-22T05:01:25;100936.72;;;15.84;40.29
16525;BME280;8375;33.594;-117.718;2023-11-22T05:03:59;100931.34;;;15.76;40.83
16525;BME280;8375;33.594;-117.718;2023-11-22T05:06:28;100928.44;;;15.69;41.13
16525;BME280;8375;33.594;-117.718;2023-11-22T05:08:56;100930.38;;;15.67;40.95
16525;BME280;8375;33.594;-117.718;2023-11-22T05:11:25;100933.63;;;15.59;41.02
16525;BME280;8375;33.594;-117.718;2023-11-22T05:13:56;100938.72;;;15.51;41.39
16525;BME280;8375;33.594;-117.718;2023-11-22T05:16:24;100943.22;;;15.39;40.35
16525;BME280;8375;33.594;-117.718;2023-11-22T05:18:53;100944.00;;;15.30;41.44
16525;BME280;8375;33.594;-117.718;2023-11-22T05:21:21;100941.84;;;15.45;41.56
16525;BME280;8375;33.594;-117.718;2023-11-22T05:23:50;100947.75;;;15.37;40.82
16525;BME280;8375;33.594;-117.718;2023-11-22T05:26:19;100949.25;;;15.30;40.83
16525;BME280;8375;33.594;-117.718;2023-11-22T05:28:48;100947.84;;;15.25;41.07
16525;BME280;8375;33.594;-117.718;2023-11-22T05:31:18;100948.38;;;15.19;41.05
16525;BME280;8375;33.594;-117.718;2023-11-22T05:33:47;100948.88;;;15.13;40.97
16525;BME280;8375;33.594;-117.718;2023-11-22T05:36:16;100939.38;;;15.12;41.43
16525;BME280;8375;33.594;-117.718;2023-11-22T05:38:44;100941.66;;;15.05;41.98
16525;BME280;8375;33.594;-117.718;2023-11-22T05:41:12;100936.59;;;15.04;41.52
16525;BME280;8375;33.594;-117.718;2023-11-22T05:43:42;100938.19;;;14.95;42.20
16525;BME280;8375;33.594;-117.718;2023-11-22T05:46:10;100940.59;;;14.87;41.34
16525;BME280;8375;33.594;-117.718;2023-11-22T05:48:41;100933.84;;;14.84;41.88
16525;BME280;8375;33.594;-117.718;2023-11-22T05:51:09;100924.16;;;14.75;41.46
16525;BME280;8375;33.594;-117.718;2023-11-22T05:53:38;100921.94;;;14.70;41.57
16525;BME280;8375;33.594;-117.718;2023-11-22T05:56:07;100918.59;;;14.68;41.76
16525;BME280;8375;33.594;-117.718;2023-11-22T05:58:36;100916.94;;;14.67;42.33
16525;BME280;8375;33.594;-117.718;2023-11-22T06:01:05;100918.38;;;14.60;42.01
16525;BME280;8375;33.594;-117.718;2023-11-22T06:03:36;100916.94;;;14.67;44.03
16525;BME280;8375;33.594;-117.718;2023-11-22T06:06:07;100921.44;;;14.65;47.46
16525;BME280;8375;33.594;-117.718;2023-11-22T06:08:36;100923.50;;;14.61;47.64
16525;BME280;8375;33.594;-117.718;2023-11-22T06:11:04;100927.50;;;14.12;48.75
16525;BME280;8375;33.594;-117.718;2023-11-22T06:13:34;100925.72;;;14.12;50.11
16525;BME280;8375;33.594;-117.718;2023-11-22T06:16:03;100933.91;;;14.07;50.63
16525;BME280;8375;33.594;-117.718;2023-11-22T06:18:33;100921.94;;;14.05;51.07
16525;BME280;8375;33.594;-117.718;2023-11-22T06:21:08;100918.28;;;13.96;51.83
16525;BME280;8375;33.594;-117.718;2023-11-22T06:23:37;100921.50;;;13.88;51.78
16525;BME280;8375;33.594;-117.718;2023-11-22T06:26:06;100921.16;;;13.93;52.61
16525;BME280;8375;33.594;-117.718;2023-11-22T06:28:35;100918.53;;;13.93;51.60
16525;BME280;8375;33.594;-117.718;2023-11-22T06:31:03;100913.91;;;13.85;51.15
16525;BME280;8375;33.594;-117.718;2023-11-22T06:33:32;100914.16;;;13.82;51.79
16525;BME280;8375;33.594;-117.718;2023-11-22T06:36:02;100922.22;;;13.79;51.19
16525;BME280;8375;33.594;-117.718;2023-11-22T06:38:32;100915.59;;;13.75;50.68
16525;BME280;8375;33.594;-117.718;2023-11-22T06:41:01;100912.63;;;13.79;50.54
16525;BME280;8375;33.594;-117.718;2023-11-22T06:43:30;100905.28;;;13.73;49.91
16525;BME280;8375;33.594;-117.718;2023-11-22T06:45:58;100914.88;;;13.73;49.92
16525;BME280;8375;33.594;-117.718;2023-11-22T06:48:28;100908.72;;;13.62;50.46
16525;BME280;8375;33.594;-117.718;2023-11-22T06:50:57;100908.41;;;13.56;50.17
16525;BME280;8375;33.594;-117.718;2023-11-22T06:53:26;100915.38;;;13.55;51.39
16525;BME280;8375;33.594;-117.718;2023-11-22T06:55:56;100918.38;;;13.51;51.17
16525;BME280;8375;33.594;-117.718;2023-11-22T06:58:25;100913.63;;;13.44;50.86
16525;BME280;8375;33.594;-117.718;2023-11-22T07:00:53;100914.31;;;13.35;51.00
16525;BME280;8375;33.594;-117.718;2023-11-22T07:03:22;100919.06;;;13.41;50.73
16525;BME280;8375;33.594;-117.718;2023-11-22T07:05:51;100918.56;;;13.36;50.48
16525;BME280;8375;33.594;-117.718;2023-11-22T07:08:19;100919.75;;;13.32;50.11
16525;BME280;8375;33.594;-117.718;2023-11-22T07:10:48;100913.47;;;13.23;50.09
16525;BME280;8375;33.594;-117.718;2023-11-22T07:13:18;100904.22;;;13.19;49.46
16525;BME280;8375;33.594;-117.718;2023-11-22T07:15:47;100900.66;;;13.09;48.62
16525;BME280;8375;33.594;-117.718;2023-11-22T07:18:17;100903.25;;;13.09;48.95
16525;BME280;8375;33.594;-117.718;2023-11-22T07:20:45;100909.41;;;12.96;49.42
16525;BME280;8375;33.594;-117.718;2023-11-22T07:23:14;100900.41;;;13.00;51.67
16525;BME280;8375;33.594;-117.718;2023-11-22T07:25:43;100900.88;;;12.94;52.01
16525;BME280;8375;33.594;-117.718;2023-11-22T07:28:12;100896.13;;;12.88;52.52
16525;BME280;8375;33.594;-117.718;2023-11-22T07:30:42;100893.75;;;12.85;51.78
16525;BME280;8375;33.594;-117.718;2023-11-22T07:33:11;100883.09;;;12.76;51.14
16525;BME280;8375;33.594;-117.718;2023-11-22T07:35:39;100884.34;;;12.71;50.48
16525;BME280;8375;33.594;-117.718;2023-11-22T07:38:08;100881.75;;;12.71;49.54
16525;BME280;8375;33.594;-117.718;2023-11-22T07:40:37;100885.44;;;12.68;49.46
16525;BME280;8375;33.594;-117.718;2023-11-22T07:43:08;100892.53;;;12.66;50.44
16525;BME280;8375;33.594;-117.718;2023-11-22T07:45:36;100883.78;;;12.67;50.89
16525;BME280;8375;33.594;-117.718;2023-11-22T07:48:07;100880.22;;;12.68;50.70
16525;BME280;8375;33.594;-117.718;2023-11-22T07:50:38;100873.59;;;12.64;51.35
16525;BME280;8375;33.594;-117.718;2023-11-22T07:53:12;100874.53;;;12.63;51.04
16525;BME280;8375;33.594;-117.718;2023-11-22T07:55:41;100875.47;;;12.62;50.23
16525;BME280;8375;33.594;-117.718;2023-11-22T07:58:09;100870.50;;;12.59;50.14
16525;BME280;8375;33.594;-117.718;2023-11-22T08:00:38;100866.22;;;12.58;48.80
16525;BME280;8375;33.594;-117.718;2023-11-22T08:03:11;100865.03;;;12.51;49.13
16525;BME280;8375;33.594;-117.718;2023-11-22T08:05:42;100859.09;;;12.49;49.87
16525;BME280;8375;33.594;-117.718;2023-11-22T08:08:14;100851.16;;;12.50;50.18
16525;BME280;8375;33.594;-117.718;2023-11-22T08:10:43;100844.22;;;12.62;49.95
16525;BME280;8375;33.594;-117.718;2023-11-22T08:13:14;100841.94;;;12.57;48.56
16525;BME280;8375;33.594;-117.718;2023-11-22T08:15:42;100836.03;;;12.55;48.36
16525;BME280;8375;33.594;-117.718;2023-11-22T08:18:14;100838.03;;;12.52;47.71
16525;BME280;8375;33.594;-117.718;2023-11-22T08:20:43;100840.88;;;12.49;48.33
16525;BME280;8375;33.594;-117.718;2023-11-22T08:23:12;100839.31;;;12.46;46.53
16525;BME280;8375;33.594;-117.718;2023-11-22T08:25:41;100842.19;;;12.54;47.57
16525;BME280;8375;33.594;-117.718;2023-11-22T08:28:10;100833.34;;;12.68;49.94
16525;BME280;8375;33.594;-117.718;2023-11-22T08:30:39;100833.91;;;12.60;50.68
16525;BME280;8375;33.594;-117.718;2023-11-22T08:33:08;100821.81;;;12.48;50.84
16525;BME280;8375;33.594;-117.718;2023-11-22T08:35:38;100831.16;;;12.39;51.36
16525;BME280;8375;33.594;-117.718;2023-11-22T08:38:07;100824.97;;;12.29;49.68
16525;BME280;8375;33.594;-117.718;2023-11-22T08:40:36;100817.84;;;12.20;50.65
16525;BME280;8375;33.594;-117.718;2023-11-22T08:43:05;100813.69;;;12.17;51.13
16525;BME280;8375;33.594;-117.718;2023-11-22T08:45:33;100807.03;;;12.13;50.79
16525;BME280;8375;33.594;-117.718;2023-11-22T08:48:02;100810.88;;;12.31;50.93
16525;BME280;8375;33.594;-117.718;2023-11-22T08:50:31;100804.00;;;12.30;51.50
16525;BME280;8375;33.594;-117.718;2023-11-22T08:53:01;100805.78;;;12.18;51.14
16525;BME280;8375;33.594;-117.718;2023-11-22T08:55:32;100804.88;;;12.07;51.45
16525;BME280;8375;33.594;-117.718;2023-11-22T08:58:01;100807.13;;;12.00;53.00
16525;BME280;8375;33.594;-117.718;2023-11-22T09:00:28;100813.25;;;11.99;53.53
16525;BME280;8375;33.594;-117.718;2023-11-22T09:02:58;100819.84;;;11.92;53.25
16525;BME280;8375;33.594;-117.718;2023-11-22T09:05:27;100814.84;;;11.88;53.96
16525;BME280;8375;33.594;-117.718;2023-11-22T09:07:56;100811.84;;;11.82;54.16
16525;BME280;8375;33.594;-117.718;2023-11-22T09:10:27;100810.31;;;11.79;54.38
16525;BME280;8375;33.594;-117.718;2023-11-22T09:12:55;100806.59;;;11.70;54.35
16525;BME280;8375;33.594;-117.718;2023-11-22T09:15:26;100804.72;;;11.72;53.19
16525;BME280;8375;33.594;-117.718;2023-11-22T09:17:56;100805.06;;;11.68;52.50
16525;BME280;8375;33.594;-117.718;2023-11-22T10:33:57;100755.72;;;10.54;58.34
16525;BME280;8375;33.594;-117.718;2023-11-22T10:36:26;100744.91;;;10.48;58.79
16525;BME280;8375;33.594;-117.718;2023-11-22T10:38:55;100748.88;;;10.53;57.59
16525;BME280;8375;33.594;-117.718;2023-11-22T10:41:24;100741.16;;;10.65;58.32
16525;BME280;8375;33.594;-117.718;2023-11-22T10:43:53;100733.59;;;10.62;58.84
16525;BME280;8375;33.594;-117.718;2023-11-22T10:46:27;100730.19;;;10.61;58.04
16525;BME280;8375;33.594;-117.718;2023-11-22T10:48:57;100732.44;;;10.53;55.82
16525;BME280;8375;33.594;-117.718;2023-11-22T10:51:30;100726.72;;;10.48;54.77
16525;BME280;8375;33.594;-117.718;2023-11-22T10:54:00;100727.56;;;10.48;55.85
16525;BME280;8375;33.594;-117.718;2023-11-22T10:56:35;100736.09;;;10.63;57.77
16525;BME280;8375;33.594;-117.718;2023-11-22T10:59:10;100733.38;;;10.52;58.06
16525;BME280;8375;33.594;-117.718;2023-11-22T11:01:44;100736.91;;;10.38;58.18
16525;BME280;8375;33.594;-117.718;2023-11-22T11:04:29;100736.25;;;10.34;57.38
16525;BME280;8375;33.594;-117.718;2023-11-22T11:07:06;100743.44;;;10.31;56.72
16525;BME280;8375;33.594;-117.718;2023-11-22T11:09:40;100734.50;;;10.35;56.41
16525;BME280;8375;33.594;-117.718;2023-11-22T11:12:10;100746.03;;;10.31;56.17
16525;BME280;8375;33.594;-117.718;2023-11-22T11:14:42;100743.66;;;10.40;57.39
16525;BME280;8375;33.594;-117.718;2023-11-22T11:17:14;100742.91;;;10.38;57.11
16525;BME280;8375;33.594;-117.718;2023-11-22T11:19:45;100746.16;;;10.42;58.48
16525;BME280;8375;33.594;-117.718;2023-11-22T11:22:17;100742.59;;;10.30;56.49
16525;BME280;8375;33.594;-117.718;2023-11-22T11:24:48;100739.66;;;10.22;56.59
16525;BME280;8375;33.594;-117.718;2023-11-22T11:27:19;100740.81;;;10.18;57.27
16525;BME280;8375;33.594;-117.718;2023-11-22T11:29:49;100733.66;;;10.21;55.94
16525;BME280;8375;33.594;-117.718;2023-11-22T11:32:31;100729.91;;;10.12;55.87
16525;BME280;8375;33.594;-117.718;2023-11-22T11:35:06;100718.91;;;10.22;57.25
16525;BME280;8375;33.594;-117.718;2023-11-22T11:37:37;100715.72;;;10.18;57.40
16525;BME280;8375;33.594;-117.718;2023-11-22T11:40:31;100713.94;;;10.19;56.53
16525;BME280;8375;33.594;-117.718;2023-11-22T11:43:01;100709.16;;;10.12;56.87
16525;BME280;8375;33.594;-117.718;2023-11-22T11:45:30;100704.91;;;10.11;56.37
16525;BME280;8375;33.594;-117.718;2023-11-22T11:48:04;100710.19;;;10.10;59.27
16525;BME280;8375;33.594;-117.718;2023-11-22T11:50:36;100701.69;;;10.08;58.77
16525;BME280;8375;33.594;-117.718;2023-11-22T11:53:06;100702.91;;;10.02;58.09
16525;BME280;8375;33.594;-117.718;2023-11-22T11:55:36;100702.38;;;9.84;55.43
16525;BME280;8375;33.594;-117.718;2023-11-22T11:58:06;100689.84;;;9.91;56.56
16525;BME280;8375;33.594;-117.718;2023-11-22T12:00:42;100686.50;;;9.89;57.03
16525;BME280;8375;33.594;-117.718;2023-11-22T12:03:27;100690.69;;;9.91;56.79
16525;BME280;8375;33.594;-117.718;2023-11-22T12:06:01;100684.25;;;9.97;58.29
16525;BME280;8375;33.594;-117.718;2023-11-22T12:08:30;100688.69;;;9.95;57.46
16525;BME280;8375;33.594;-117.718;2023-11-22T12:11:03;100684.03;;;9.87;58.96
16525;BME280;8375;33.594;-117.718;2023-11-22T12:13:35;100694.81;;;9.81;59.32
16525;BME280;8375;33.594;-117.718;2023-11-22T12:16:06;100680.88;;;9.69;59.27
16525;BME280;8375;33.594;-117.718;2023-11-22T12:18:44;100684.06;;;9.60;60.32
16525;BME280;8375;33.594;-117.718;2023-11-22T12:21:16;100676.22;;;9.61;60.04
16525;BME280;8375;33.594;-117.718;2023-11-22T12:23:52;100692.34;;;9.52;59.54
16525;BME280;8375;33.594;-117.718;2023-11-22T12:26:24;100693.69;;;9.58;60.96
16525;BME280;8375;33.594;-117.718;2023-11-22T12:28:54;100698.88;;;9.45;60.87
16525;BME280;8375;33.594;-117.718;2023-11-22T12:31:25;100694.59;;;9.44;61.87
16525;BME280;8375;33.594;-117.718;2023-11-22T12:42:14;100686.94;;;9.15;61.79
16525;BME280;8375;33.594;-117.718;2023-11-22T12:44:51;100689.41;;;9.16;60.49
16525;BME280;8375;33.594;-117.718;2023-11-22T12:47:34;100684.97;;;9.18;59.44
16525;BME280;8375;33.594;-117.718;2023-11-22T12:50:05;100687.56;;;9.18;58.68
16525;BME280;8375;33.594;-117.718;2023-11-22T12:52:35;100680.44;;;9.22;58.99
16525;BME280;8375;33.594;-117.718;2023-11-22T12:55:07;100680.88;;;9.29;59.37
16525;BME280;8375;33.594;-117.718;2023-11-22T12:57:45;100679.50;;;9.23;59.52
16525;BME280;8375;33.594;-117.718;2023-11-22T13:00:24;100662.09;;;9.25;59.29
16525;BME280;8375;33.594;-117.718;2023-11-22T13:03:12;100666.44;;;9.24;57.68
16525;BME280;8375;33.594;-117.718;2023-11-22T13:05:45;100665.13;;;9.32;58.17
16525;BME280;8375;33.594;-117.718;2023-11-22T13:08:25;100666.72;;;9.47;60.43
16525;BME280;8375;33.594;-117.718;2023-11-22T13:10:59;100664.91;;;9.35;59.48
16525;BME280;8375;33.594;-117.718;2023-11-22T13:13:31;100670.41;;;9.30;59.09
16525;BME280;8375;33.594;-117.718;2023-11-22T13:16:03;100667.56;;;9.20;58.30
16525;BME280;8375;33.594;-117.718;2023-11-22T13:18:33;100661.84;;;9.15;58.79
16525;BME280;8375;33.594;-117.718;2023-11-22T13:21:06;100667.03;;;9.15;59.97
16525;BME280;8375;33.594;-117.718;2023-11-22T13:23:36;100664.34;;;9.17;60.92
16525;BME280;8375;33.594;-117.718;2023-11-22T13:26:06;100658.63;;;9.12;61.05
16525;BME280;8375;33.594;-117.718;2023-11-22T13:28:39;100671.66;;;9.10;60.83
16525;BME280;8375;33.594;-117.718;2023-11-22T13:31:16;100667.47;;;9.22;61.48
16525;BME280;8375;33.594;-117.718;2023-11-22T13:33:46;100662.97;;;9.11;59.61
16525;BME280;8375;33.594;-117.718;2023-11-22T13:36:16;100656.25;;;9.08;61.15
16525;BME280;8375;33.594;-117.718;2023-11-22T13:38:45;100673.72;;;9.05;60.61
16525;BME280;8375;33.594;-117.718;2023-11-22T13:41:15;100669.34;;;9.20;60.93
16525;BME280;8375;33.594;-117.718;2023-11-22T13:43:47;100675.19;;;9.09;61.27
16525;BME280;8375;33.594;-117.718;2023-11-22T13:46:22;100669.56;;;9.02;61.51
16525;BME280;8375;33.594;-117.718;2023-11-22T13:49:01;100673.09;;;9.01;60.87
16525;BME280;8375;33.594;-117.718;2023-11-22T13:51:31;100666.53;;;8.95;60.68
16525;BME280;8375;33.594;-117.718;2023-11-22T13:54:04;100667.06;;;9.01;60.16
16525;BME280;8375;33.594;-117.718;2023-11-22T13:56:34;100667.91;;;9.01;59.05
16525;BME280;8375;33.594;-117.718;2023-11-22T13:59:06;100668.56;;;8.90;59.87
16525;BME280;8375;33.594;-117.718;2023-11-22T14:01:39;100671.09;;;8.92;60.72
16525;BME280;8375;33.594;-117.718;2023-11-22T14:04:14;100681.88;;;8.99;61.50
16525;BME280;8375;33.594;-117.718;2023-11-22T14:06:44;100681.13;;;8.97;61.89
16525;BME280;8375;33.594;-117.718;2023-11-22T14:09:16;100680.59;;;8.91;62.06
16525;BME280;8375;33.594;-117.718;2023-11-22T14:11:46;100672.19;;;8.88;61.38
16525;BME280;8375;33.594;-117.718;2023-11-22T14:14:18;100682.56;;;8.73;61.42
16525;BME280;8375;33.594;-117.718;2023-11-22T14:16:53;100676.38;;;8.76;62.03
16525;BME280;8375;33.594;-117.718;2023-11-22T14:19:22;100690.50;;;8.85;61.26
16525;BME280;8375;33.594;-117.718;2023-11-22T14:21:54;100693.69;;;9.03;64.10
16525;BME280;8375;33.594;-117.718;2023-11-22T14:24:27;100689.66;;;8.84;63.69
16525;BME280;8375;33.594;-117.718;2023-11-22T14:27:06;100695.03;;;8.81;62.31
16525;BME280;8375;33.594;-117.718;2023-11-22T14:29:38;100694.66;;;8.73;61.69
16525;BME280;8375;33.594;-117.718;2023-11-22T14:32:11;100701.63;;;8.72;61.08
16525;BME280;8375;33.594;-117.718;2023-11-22T14:34:40;100692.09;;;8.73;60.50
16525;BME280;8375;33.594;-117.718;2023-11-22T14:37:10;100702.25;;;8.76;60.69
16525;BME280;8375;33.594;-117.718;2023-11-22T14:39:38;100699.44;;;8.93;61.07
16525;BME280;8375;33.594;-117.718;2023-11-22T16:05:58;100745.97;;;20.81;35.77
16525;BME280;8375;33.594;-117.718;2023-11-22T16:08:29;100742.69;;;20.79;37.64
16525;BME280;8375;33.594;-117.718;2023-11-22T16:10:58;100745.19;;;21.04;37.61
16525;BME280;8375;33.594;-117.718;2023-11-22T16:13:27;100747.22;;;21.25;38.07
16525;BME280;8375;33.594;-117.718;2023-11-22T16:15:55;100740.16;;;21.25;38.01
16525;BME280;8375;33.594;-117.718;2023-11-22T16:18:26;100736.88;;;21.85;37.71
16525;BME280;8375;33.594;-117.718;2023-11-22T16:20:57;100727.41;;;23.39;36.04
16525;BME280;8375;33.594;-117.718;2023-11-22T16:23:26;100738.94;;;24.81;32.79
16525;BME280;8375;33.594;-117.718;2023-11-22T16:25:54;100742.13;;;25.78;32.03
16525;BME280;8375;33.594;-117.718;2023-11-22T16:28:23;100740.31;;;25.52;31.27
16525;BME280;8375;33.594;-117.718;2023-11-22T16:30:52;100734.47;;;24.88;33.32
16525;BME280;8375;33.594;-117.718;2023-11-22T16:33:20;100733.78;;;23.95;35.57
16525;BME280;8375;33.594;-117.718;2023-11-22T16:35:49;100736.19;;;23.40;35.96
16525;BME280;8375;33.594;-117.718;2023-11-22T16:38:19;100724.19;;;22.85;35.96
16525;BME280;8375;33.594;-117.718;2023-11-22T16:40:48;100727.06;;;22.09;38.23
16525;BME280;8375;33.594;-117.718;2023-11-22T16:43:19;100720.66;;;21.73;37.90
16525;BME280;8375;33.594;-117.718;2023-11-22T16:45:48;100712.44;;;21.45;39.46
16525;BME280;8375;33.594;-117.718;2023-11-22T16:48:17;100721.06;;;21.62;39.27
16525;BME280;8375;33.594;-117.718;2023-11-22T16:50:50;100717.03;;;21.74;39.56
16525;BME280;8375;33.594;-117.718;2023-11-22T16:53:21;100710.50;;;21.62;38.82
16525;BME280;8375;33.594;-117.718;2023-11-22T16:55:50;100708.50;;;21.17;38.72
16525;BME280;8375;33.594;-117.718;2023-11-22T16:58:18;100710.25;;;21.02;39.55
16525;BME280;8375;33.594;-117.718;2023-11-22T17:00:47;100702.56;;;21.15;39.20
16525;BME280;8375;33.594;-117.718;2023-11-22T17:03:17;100704.22;;;20.93;39.25
16525;BME280;8375;33.594;-117.718;2023-11-22T17:05:47;100691.38;;;20.50;40.90
16525;BME280;8375;33.594;-117.718;2023-11-22T17:08:16;100686.75;;;20.52;40.86